Time;durP1;ratioP1;P1;durP2;ratioP2;P2;SDS_P1;SDS_P2;PMS_P1;PMS_P2;Temp;Humidity;BMP_temperature;BMP_pressure;BME280_temperature;BME280_humidity;BME280_pressure;Samples;Min_cycle;Max_cycle;Signal;HPM_P1;HPM_P2
2022/07/07 00:01:22;;;;;;;2.53;1.42;;;15.20;87.10;;;;;;5055819;28;20235;-77
2022/07/07 00:03:47;;;;;;;7.32;1.60;;;15.10;86.20;;;;;;5055463;28;20265;-77
2022/07/07 00:06:13;;;;;;;2.97;1.40;;;15.10;87.10;;;;;;5055571;28;20167;-76
2022/07/07 00:08:39;;;;;;;4.53;1.40;;;14.90;88.10;;;;;;5055700;28;20173;-76
2022/07/07 00:11:04;;;;;;;4.22;1.50;;;14.80;89.50;;;;;;5055451;28;20174;-76
2022/07/07 00:13:30;;;;;;;2.28;1.20;;;14.80;90.10;;;;;;5055307;28;20217;-76
2022/07/07 00:15:55;;;;;;;2.58;1.40;;;14.80;90.30;;;;;;5055270;28;20261;-76
2022/07/07 00:18:21;;;;;;;3.08;1.35;;;14.80;90.80;;;;;;5037452;28;20189;-76
2022/07/07 00:20:46;;;;;;;3.30;1.33;;;14.90;91.20;;;;;;5055264;28;20182;-76
2022/07/07 00:23:12;;;;;;;2.35;1.52;;;14.90;91.70;;;;;;5037248;28;20198;-76
2022/07/07 00:25:38;;;;;;;3.30;1.42;;;14.90;92.20;;;;;;5037298;28;20555;-76
2022/07/07 00:28:03;;;;;;;6.47;1.70;;;14.90;92.40;;;;;;5037786;28;20190;-76
2022/07/07 00:30:29;;;;;;;3.25;1.50;;;14.90;92.10;;;;;;5038320;28;20524;-76
2022/07/07 00:32:54;;;;;;;3.55;1.55;;;14.90;92.90;;;;;;5037161;28;20175;-76
2022/07/07 00:35:23;;;;;;;3.70;1.50;;;14.80;93.50;;;;;;5054982;28;20197;-76
2022/07/07 00:37:48;;;;;;;8.40;1.83;;;14.70;94.40;;;;;;5037276;28;20182;-76
2022/07/07 00:40:14;;;;;;;2.83;1.70;;;14.80;94.50;;;;;;5037321;28;20192;-76
2022/07/07 00:42:40;;;;;;;5.35;1.73;;;14.70;95.40;;;;;;5054970;28;20209;-76
2022/07/07 00:45:06;;;;;;;2.97;1.83;;;14.90;95.90;;;;;;5036951;28;20643;-76
2022/07/07 00:47:32;;;;;;;1.50;1.40;;;14.70;95.90;;;;;;5037133;28;20754;-76
2022/07/07 00:50:00;;;;;;;3.92;1.58;;;14.80;96.60;;;;;;5036877;28;20265;-76
2022/07/07 00:52:25;;;;;;;6.50;1.70;;;14.80;97.00;;;;;;5036773;28;20178;-76
2022/07/07 00:54:52;;;;;;;1.55;1.45;;;14.90;96.60;;;;;;5036750;28;20198;-77
2022/07/07 00:57:19;;;;;;;2.85;1.75;;;14.90;95.90;;;;;;5054718;28;20225;-77
2022/07/07 00:59:44;;;;;;;2.92;1.45;;;14.80;95.30;;;;;;5037414;28;20185;-77
2022/07/07 01:02:10;;;;;;;2.90;1.42;;;14.70;96.10;;;;;;5036823;28;20197;-77
2022/07/07 01:04:36;;;;;;;4.30;1.45;;;14.70;96.60;;;;;;5036822;28;20293;-77
2022/07/07 01:07:01;;;;;;;1.48;1.38;;;14.70;97.00;;;;;;5054586;28;20167;-77
2022/07/07 01:09:27;;;;;;;3.30;1.58;;;14.70;97.10;;;;;;5036525;28;20174;-77
2022/07/07 01:11:57;;;;;;;2.20;1.70;;;14.60;96.40;;;;;;5036415;28;20277;-77
2022/07/07 01:14:24;;;;;;;1.52;1.42;;;14.60;97.00;;;;;;5054703;28;20197;-77
2022/07/07 01:16:51;;;;;;;4.15;1.70;;;14.60;96.70;;;;;;5037132;28;20181;-77
2022/07/07 01:19:19;;;;;;;2.92;1.50;;;14.70;97.10;;;;;;5036304;28;20182;-77
2022/07/07 01:22:03;;;;;;;5.53;1.63;;;14.80;97.00;;;;;;5037050;28;20212;-77
2022/07/07 01:24:30;;;;;;;2.85;1.88;;;14.90;96.30;;;;;;5053835;28;20665;-77
2022/07/07 01:27:09;;;;;;;5.05;1.90;;;14.90;98.70;;;;;;5036473;28;20248;-77
2022/07/07 01:29:41;;;;;;;4.47;1.80;;;14.90;99.90;;;;;;5036140;28;20170;-77
2022/07/07 01:32:10;;;;;;;2.25;1.80;;;14.90;99.60;;;;;;5036029;28;20186;-77
2022/07/07 01:34:37;;;;;;;3.00;1.90;;;14.80;99.30;;;;;;5035847;28;20201;-77
2022/07/07 01:37:03;;;;;;;2.05;1.80;;;14.80;99.20;;;;;;5036249;28;20210;-77
2022/07/07 01:39:29;;;;;;;4.45;2.08;;;14.70;99.90;;;;;;5036314;28;20182;-77
2022/07/07 01:41:55;;;;;;;4.90;1.90;;;14.70;99.50;;;;;;5035687;28;20217;-77
2022/07/07 01:44:20;;;;;;;2.55;2.00;;;14.90;99.70;;;;;;5035837;28;20194;-77
2022/07/07 01:46:46;;;;;;;2.42;1.70;;;14.90;99.90;;;;;;5036229;28;20518;-77
2022/07/07 01:49:12;;;;;;;3.30;1.90;;;14.80;99.90;;;;;;5053656;28;20660;-77
2022/07/07 01:51:37;;;;;;;2.30;1.58;;;14.90;99.90;;;;;;5036622;28;20524;-77
2022/07/07 01:54:03;;;;;;;3.55;1.60;;;15.00;99.90;;;;;;5035726;28;20725;-77
2022/07/07 01:56:29;;;;;;;5.15;2.00;;;15.00;99.70;;;;;;5036034;28;20182;-77
2022/07/07 01:58:54;;;;;;;3.72;1.77;;;15.00;98.80;;;;;;5035709;28;20173;-77
2022/07/07 02:01:20;;;;;;;2.58;1.80;;;15.00;97.60;;;;;;5053648;28;20182;-77
2022/07/07 02:03:46;;;;;;;6.28;1.88;;;15.00;97.80;;;;;;5035856;28;20224;-77
2022/07/07 02:06:12;;;;;;;4.18;2.10;;;15.00;98.80;;;;;;5035528;28;20228;-77
2022/07/07 02:08:37;;;;;;;5.07;1.90;;;14.90;98.70;;;;;;5036420;28;20173;-77
2022/07/07 02:11:15;;;;;;;2.53;1.98;;;14.90;99.70;;;;;;5035550;28;20571;-77
2022/07/07 02:13:41;;;;;;;2.58;1.85;;;14.80;99.10;;;;;;5053255;28;20198;-77
2022/07/07 02:16:07;;;;;;;3.13;1.83;;;14.80;99.60;;;;;;5053495;28;20188;-77
2022/07/07 02:18:37;;;;;;;3.15;2.00;;;14.80;99.90;;;;;;5036301;28;20265;-77
2022/07/07 02:21:04;;;;;;;3.42;1.90;;;14.80;99.90;;;;;;5035596;28;20181;-77
2022/07/07 02:23:31;;;;;;;1.80;1.70;;;14.90;99.90;;;;;;5053434;28;20213;-77
2022/07/07 02:25:57;;;;;;;3.22;2.15;;;14.90;99.90;;;;;;5035250;28;20616;-77
2022/07/07 02:28:23;;;;;;;2.47;1.75;;;14.90;99.90;;;;;;5036170;28;20182;-77
2022/07/07 02:30:53;;;;;;;2.30;1.98;;;14.90;99.90;;;;;;5035408;28;20668;-77
2022/07/07 02:33:19;;;;;;;3.15;2.20;;;14.90;99.90;;;;;;5035544;28;20189;-77
2022/07/07 02:35:46;;;;;;;5.00;2.20;;;14.90;99.90;;;;;;5035571;28;20182;-77
2022/07/07 02:38:11;;;;;;;4.45;1.98;;;14.80;99.90;;;;;;5035248;28;20178;-77
2022/07/07 02:40:37;;;;;;;3.97;2.40;;;14.90;99.90;;;;;;5035262;28;20178;-77
2022/07/07 02:43:03;;;;;;;4.80;2.20;;;14.90;99.90;;;;;;5035187;28;20309;-77
2022/07/07 02:45:28;;;;;;;4.55;2.20;;;14.90;99.90;;;;;;5053265;28;20206;-77
2022/07/07 02:47:54;;;;;;;3.40;2.00;;;14.80;99.90;;;;;;5036067;28;20174;-77
2022/07/07 02:50:20;;;;;;;2.10;1.92;;;14.90;99.90;;;;;;5035545;28;20171;-77
2022/07/07 02:52:45;;;;;;;2.88;2.03;;;14.90;99.90;;;;;;5035128;28;20200;-77
2022/07/07 02:55:11;;;;;;;3.80;2.00;;;15.00;99.90;;;;;;5037798;28;20289;-77
2022/07/07 02:57:36;;;;;;;3.35;2.35;;;14.90;99.90;;;;;;5056737;28;20174;-77
2022/07/07 03:00:07;;;;;;;7.68;2.40;;;14.90;99.90;;;;;;5057012;28;20170;-77
2022/07/07 03:02:33;;;;;;;2.25;2.05;;;14.80;99.90;;;;;;5038884;28;20206;-77
2022/07/07 03:04:59;;;;;;;5.07;1.95;;;14.70;99.90;;;;;;5038681;28;20791;-77
2022/07/07 03:07:24;;;;;;;3.25;2.50;;;14.80;99.90;;;;;;5038783;28;20538;-77
2022/07/07 03:09:50;;;;;;;4.60;2.20;;;14.80;99.90;;;;;;5056808;28;20208;-77
2022/07/07 03:12:16;;;;;;;2.58;2.30;;;14.60;99.90;;;;;;5038703;28;20174;-77
2022/07/07 03:14:41;;;;;;;2.97;2.15;;;14.70;99.90;;;;;;5038944;28;20213;-77
2022/07/07 03:17:07;;;;;;;2.40;2.20;;;14.70;99.90;;;;;;5039631;28;20610;-77
2022/07/07 03:19:34;;;;;;;2.70;2.50;;;14.70;99.90;;;;;;5038892;28;20190;-77
2022/07/07 03:22:03;;;;;;;4.97;2.60;;;14.70;99.90;;;;;;5038772;28;20201;-77
2022/07/07 03:24:29;;;;;;;3.92;2.30;;;14.80;99.90;;;;;;5038389;28;20202;-77
2022/07/07 03:26:55;;;;;;;3.20;2.35;;;14.80;99.90;;;;;;5038428;28;20216;-77
2022/07/07 03:29:21;;;;;;;3.03;2.55;;;14.80;99.90;;;;;;5056495;28;20185;-77
2022/07/07 03:31:47;;;;;;;2.33;2.15;;;14.80;99.90;;;;;;5038668;28;20243;-77
2022/07/07 03:34:12;;;;;;;4.30;2.33;;;14.80;99.90;;;;;;5056095;28;20714;-77
2022/07/07 03:36:38;;;;;;;2.67;2.33;;;14.90;99.90;;;;;;5038273;28;20663;-77
2022/07/07 03:39:05;;;;;;;3.00;2.50;;;14.90;99.90;;;;;;5039081;28;20217;-77
2022/07/07 03:41:30;;;;;;;4.97;2.65;;;14.70;99.90;;;;;;5038440;28;20186;-77
2022/07/07 03:43:56;;;;;;;4.45;2.53;;;14.70;99.90;;;;;;5038698;28;20202;-77
2022/07/07 03:46:21;;;;;;;3.97;2.45;;;14.80;99.90;;;;;;5038096;28;20216;-77
2022/07/07 03:48:47;;;;;;;4.30;2.70;;;14.80;99.90;;;;;;5038801;28;20185;-77
2022/07/07 03:51:13;;;;;;;5.68;2.58;;;14.80;99.90;;;;;;5038807;28;20177;-77
2022/07/07 03:53:38;;;;;;;4.22;2.50;;;14.80;99.90;;;;;;5038169;28;20615;-77
2022/07/07 03:56:04;;;;;;;4.55;3.05;;;14.90;99.90;;;;;;5056479;28;20178;-77
2022/07/07 03:58:30;;;;;;;4.20;2.63;;;14.90;99.90;;;;;;5037845;28;20187;-77
2022/07/07 04:00:55;;;;;;;4.03;2.80;;;15.00;99.90;;;;;;5038621;28;20220;-77
2022/07/07 04:03:21;;;;;;;2.85;2.65;;;14.90;99.90;;;;;;5037988;28;20228;-77
2022/07/07 04:05:46;;;;;;;3.25;2.50;;;14.80;99.90;;;;;;5037403;28;20289;-77
2022/07/07 04:08:12;;;;;;;3.03;2.80;;;14.80;99.90;;;;;;5037686;28;20185;-77
2022/07/07 04:10:38;;;;;;;4.22;2.75;;;14.80;99.90;;;;;;5038154;28;20559;-77
2022/07/07 04:13:03;;;;;;;6.03;2.85;;;14.80;99.90;;;;;;5055629;28;20178;-77
2022/07/07 04:15:29;;;;;;;4.53;2.80;;;14.70;99.90;;;;;;5037438;28;20569;-76
2022/07/07 04:17:54;;;;;;;5.00;2.58;;;14.70;99.90;;;;;;5037524;28;20178;-77
2022/07/07 04:20:20;;;;;;;3.70;2.80;;;14.70;99.90;;;;;;5037406;28;20203;-77
2022/07/07 04:22:46;;;;;;;7.53;3.00;;;14.70;99.90;;;;;;5055529;28;20200;-77
2022/07/07 04:25:11;;;;;;;3.22;2.80;;;14.70;99.90;;;;;;5055654;28;20201;-77
2022/07/07 04:27:37;;;;;;;4.18;2.90;;;14.70;99.90;;;;;;5038200;28;20240;-77
2022/07/07 04:30:15;;;;;;;3.67;2.50;;;14.70;99.90;;;;;;5038004;28;20272;-77
2022/07/07 04:32:41;;;;;;;3.90;2.63;;;14.80;99.90;;;;;;5037972;28;20174;-77
2022/07/07 04:35:08;;;;;;;7.25;3.30;;;14.80;99.90;;;;;;5038117;28;20202;-77
2022/07/07 04:37:33;;;;;;;4.32;3.10;;;14.80;99.90;;;;;;5038745;28;20178;-77
2022/07/07 04:39:59;;;;;;;3.42;2.88;;;14.80;99.90;;;;;;5037344;28;20185;-77
2022/07/07 04:42:25;;;;;;;4.20;3.35;;;14.90;99.90;;;;;;5036942;28;20232;-77
2022/07/07 04:44:50;;;;;;;4.05;3.08;;;14.90;99.90;;;;;;5037266;28;20238;-76
2022/07/07 04:47:16;;;;;;;6.00;3.20;;;14.80;99.90;;;;;;5038315;28;20229;-77
2022/07/07 04:49:42;;;;;;;5.32;3.40;;;14.80;99.90;;;;;;5055009;28;20261;-77
2022/07/07 04:52:07;;;;;;;4.10;2.95;;;14.80;99.90;;;;;;5036790;28;20185;-77
2022/07/07 04:54:33;;;;;;;4.53;3.35;;;14.80;99.90;;;;;;5054506;28;20293;-77
2022/07/07 04:56:59;;;;;;;3.42;3.15;;;14.70;99.90;;;;;;5037107;28;20278;-77
2022/07/07 04:59:24;;;;;;;4.72;3.13;;;14.70;99.90;;;;;;5036645;28;20209;-77
2022/07/07 05:01:50;;;;;;;3.60;3.30;;;14.60;99.90;;;;;;5036586;28;20206;-77
2022/07/07 05:04:15;;;;;;;3.30;3.00;;;14.70;99.90;;;;;;5037402;28;20194;-77
2022/07/07 05:06:41;;;;;;;4.97;3.22;;;14.60;99.90;;;;;;5036617;28;20224;-77
2022/07/07 05:09:07;;;;;;;3.80;3.40;;;14.60;99.90;;;;;;5036842;28;20637;-77
2022/07/07 05:11:32;;;;;;;3.42;2.97;;;14.60;99.90;;;;;;5054747;28;20178;-80
2022/07/07 05:13:58;;;;;;;4.30;3.03;;;14.50;99.90;;;;;;5036378;28;20198;-77
2022/07/07 05:16:23;;;;;;;3.42;3.13;;;14.60;99.90;;;;;;5035897;28;20178;-77
2022/07/07 05:18:49;;;;;;;3.30;3.00;;;14.70;99.90;;;;;;5036271;28;20166;-77
2022/07/07 05:21:15;;;;;;;5.07;3.20;;;14.80;99.90;;;;;;5036327;28;20209;-77
2022/07/07 05:23:40;;;;;;;3.78;3.22;;;14.80;99.90;;;;;;5036618;28;20281;-77
2022/07/07 05:26:06;;;;;;;3.38;2.90;;;14.80;99.90;;;;;;5036876;28;20181;-76
2022/07/07 05:28:33;;;;;;;3.40;2.90;;;14.90;99.90;;;;;;5036283;28;20228;-77
2022/07/07 05:30:59;;;;;;;3.80;3.20;;;14.90;99.90;;;;;;5053946;28;20522;-77
2022/07/07 05:33:24;;;;;;;4.15;2.70;;;14.90;99.90;;;;;;5053868;28;20219;-76
2022/07/07 05:35:50;;;;;;;3.70;3.40;;;14.90;99.90;;;;;;5035919;28;20174;-76
2022/07/07 05:38:15;;;;;;;3.33;3.10;;;15.00;99.90;;;;;;5036040;28;20175;-76
2022/07/07 05:40:41;;;;;;;3.53;3.22;;;15.20;99.90;;;;;;5036218;28;20177;-77
2022/07/07 05:43:08;;;;;;;3.33;3.13;;;15.10;99.90;;;;;;5036896;28;20202;-76
2022/07/07 05:45:33;;;;;;;7.57;3.60;;;15.10;99.90;;;;;;5035667;28;20200;-77
2022/07/07 05:47:59;;;;;;;3.80;3.28;;;15.10;99.90;;;;;;5035814;28;20174;-76
2022/07/07 05:50:24;;;;;;;5.90;3.40;;;15.10;99.90;;;;;;5035694;28;20174;-77
2022/07/07 05:52:50;;;;;;;4.57;3.53;;;15.00;99.90;;;;;;5036110;28;20208;-76
2022/07/07 05:55:16;;;;;;;5.40;3.28;;;15.00;99.90;;;;;;5036005;28;20259;-76
2022/07/07 05:57:41;;;;;;;6.93;3.63;;;15.00;99.90;;;;;;5036055;28;20174;-76
2022/07/07 06:00:07;;;;;;;7.55;3.63;;;15.10;99.90;;;;;;5036401;28;20267;-76
2022/07/07 06:02:33;;;;;;;5.50;3.70;;;15.20;99.90;;;;;;5035804;28;20339;-76
2022/07/07 06:04:58;;;;;;;8.43;3.90;;;15.20;99.90;;;;;;5035534;28;20229;-76
2022/07/07 06:07:25;;;;;;;5.55;3.80;;;15.30;99.90;;;;;;5035570;28;20253;-76
2022/07/07 06:09:50;;;;;;;5.60;3.42;;;15.30;99.90;;;;;;5053606;28;20176;-76
2022/07/07 06:12:16;;;;;;;3.78;3.47;;;15.30;99.90;;;;;;5035831;28;20265;-76
2022/07/07 06:14:42;;;;;;;3.85;3.50;;;15.20;99.90;;;;;;5035715;28;20247;-76
2022/07/07 06:17:07;;;;;;;5.28;3.80;;;15.00;99.90;;;;;;5035494;28;20769;-76
2022/07/07 06:19:33;;;;;;;4.18;3.17;;;15.20;99.90;;;;;;5035529;28;20643;-76
2022/07/07 06:21:58;;;;;;;4.97;3.58;;;15.30;99.90;;;;;;5035325;28;20209;-76
2022/07/07 06:24:24;;;;;;;6.93;3.50;;;15.30;99.90;;;;;;5035251;28;20281;-76
2022/07/07 06:26:49;;;;;;;6.90;3.58;;;15.40;99.90;;;;;;5035266;28;20255;-76
2022/07/07 06:29:15;;;;;;;3.97;3.05;;;15.30;99.90;;;;;;5038451;28;20201;-76
2022/07/07 06:31:41;;;;;;;5.75;3.38;;;15.40;99.90;;;;;;5040288;28;20208;-76
2022/07/07 06:34:06;;;;;;;4.78;3.22;;;15.40;99.90;;;;;;5039981;28;20249;-76
2022/07/07 06:36:32;;;;;;;3.88;3.38;;;15.40;99.90;;;;;;5039463;28;20181;-76
2022/07/07 06:38:57;;;;;;;6.10;3.08;;;15.50;99.90;;;;;;5039341;28;20186;-76
2022/07/07 06:41:23;;;;;;;4.00;3.03;;;15.60;99.90;;;;;;5039204;28;20557;-76
2022/07/07 06:43:50;;;;;;;3.97;3.47;;;15.50;99.90;;;;;;5039447;28;20194;-76
2022/07/07 06:46:16;;;;;;;4.70;3.78;;;15.50;99.90;;;;;;5039458;28;20324;-76
2022/07/07 06:48:41;;;;;;;4.57;3.45;;;15.50;99.90;;;;;;5057222;28;20587;-76
2022/07/07 06:51:07;;;;;;;3.60;3.30;;;15.50;99.90;;;;;;5039110;28;20205;-76
2022/07/07 06:53:32;;;;;;;7.45;3.22;;;15.60;99.90;;;;;;5039057;28;20204;-77
2022/07/07 06:55:58;;;;;;;3.65;3.22;;;15.40;99.90;;;;;;5040050;28;20181;-77
2022/07/07 06:58:24;;;;;;;5.05;3.88;;;15.30;99.90;;;;;;5039227;28;20235;-77
2022/07/07 07:00:49;;;;;;;4.22;3.30;;;15.40;99.90;;;;;;5038993;28;20193;-77
2022/07/07 07:03:15;;;;;;;3.65;3.15;;;15.50;99.90;;;;;;5056670;28;20680;-77
2022/07/07 07:05:40;;;;;;;5.93;3.03;;;15.50;99.90;;;;;;5039285;28;20178;-77
2022/07/07 07:08:06;;;;;;;4.65;3.42;;;15.40;99.90;;;;;;5038862;28;20551;-77
2022/07/07 07:10:32;;;;;;;4.88;3.40;;;15.50;99.90;;;;;;5038694;28;20178;-77
2022/07/07 07:12:57;;;;;;;4.18;2.95;;;15.50;99.90;;;;;;5038743;28;20182;-77
2022/07/07 07:15:23;;;;;;;5.88;3.38;;;15.60;99.90;;;;;;5038760;28;20205;-77
2022/07/07 07:17:48;;;;;;;5.20;3.45;;;15.70;99.90;;;;;;5038956;28;20182;-77
2022/07/07 07:20:14;;;;;;;6.10;3.00;;;15.60;99.90;;;;;;5039760;28;20189;-77
2022/07/07 07:22:41;;;;;;;6.18;3.00;;;15.60;99.90;;;;;;5038406;28;20575;-77
2022/07/07 07:25:07;;;;;;;4.22;3.03;;;15.70;99.90;;;;;;5038565;28;20247;-77
2022/07/07 07:27:36;;;;;;;3.92;3.53;;;15.80;99.90;;;;;;5038674;28;20668;-77
2022/07/07 07:30:03;;;;;;;4.50;3.30;;;15.70;99.90;;;;;;5038764;28;20263;-77
2022/07/07 07:32:29;;;;;;;4.13;2.90;;;15.80;99.90;;;;;;5039455;28;20186;-77
2022/07/07 07:34:54;;;;;;;4.32;2.83;;;15.60;99.90;;;;;;5038593;28;20201;-77
2022/07/07 07:37:20;;;;;;;4.82;3.00;;;15.70;99.90;;;;;;5038842;28;20567;-77
2022/07/07 07:39:45;;;;;;;4.30;3.00;;;15.80;99.90;;;;;;5037726;28;20357;-77
2022/07/07 07:42:11;;;;;;;5.50;3.25;;;15.80;99.90;;;;;;5038049;28;20233;-77
2022/07/07 07:47:20;;;;;;;5.82;3.47;;;15.80;99.90;;;;;;5056521;28;20220;-77
2022/07/07 07:49:46;;;;;;;6.10;3.35;;;15.70;99.90;;;;;;5038043;28;20583;-77
2022/07/07 07:52:12;;;;;;;4.65;3.00;;;15.70;99.90;;;;;;5038013;28;20182;-77
2022/07/07 07:54:37;;;;;;;4.57;3.35;;;15.80;99.90;;;;;;5038508;28;20676;-77
2022/07/07 07:57:03;;;;;;;5.40;3.45;;;15.70;99.90;;;;;;5037862;28;20200;-77
2022/07/07 07:59:29;;;;;;;5.55;3.60;;;15.70;99.90;;;;;;5037988;28;20202;-77
2022/07/07 08:01:54;;;;;;;3.78;3.13;;;15.70;99.90;;;;;;5038103;28;20229;-77
2022/07/07 08:04:20;;;;;;;3.92;3.30;;;15.90;99.90;;;;;;5037638;28;20190;-77
2022/07/07 08:06:46;;;;;;;5.07;3.40;;;16.00;99.90;;;;;;5038580;28;20193;-77
2022/07/07 08:09:11;;;;;;;3.92;3.22;;;16.10;99.90;;;;;;5055398;28;20621;-77
2022/07/07 08:11:37;;;;;;;3.92;3.28;;;16.20;99.90;;;;;;5055447;28;20174;-77
2022/07/07 08:14:02;;;;;;;4.07;3.67;;;16.30;99.90;;;;;;5055361;28;20194;-77
2022/07/07 08:16:28;;;;;;;5.30;3.95;;;16.20;99.90;;;;;;5037508;28;20178;-77
2022/07/07 08:18:54;;;;;;;8.50;3.92;;;16.20;99.90;;;;;;5055644;28;20701;-77
2022/07/07 08:21:19;;;;;;;5.97;3.40;;;16.10;99.90;;;;;;5037469;28;20228;-77
2022/07/07 08:23:46;;;;;;;6.63;3.65;;;16.20;99.90;;;;;;5037542;28;20221;-77
2022/07/07 08:26:12;;;;;;;3.97;3.67;;;16.30;99.90;;;;;;5055093;28;20233;-77
2022/07/07 08:28:38;;;;;;;4.68;3.25;;;16.40;99.90;;;;;;5055415;28;20514;-77
2022/07/07 08:31:03;;;;;;;6.28;3.42;;;16.40;99.90;;;;;;5037513;28;20169;-77
2022/07/07 08:33:29;;;;;;;10.15;3.63;;;16.30;99.90;;;;;;5037436;28;20733;-77
2022/07/07 08:35:55;;;;;;;5.63;3.83;;;16.20;99.90;;;;;;5037275;28;20185;-77
2022/07/07 08:38:20;;;;;;;6.63;4.13;;;16.40;99.90;;;;;;5037149;28;20663;-77
2022/07/07 08:40:46;;;;;;;5.43;3.88;;;16.60;99.90;;;;;;5037894;28;20228;-77
2022/07/07 08:43:12;;;;;;;6.38;3.55;;;16.90;99.90;;;;;;5037786;28;20255;-77
2022/07/07 08:45:37;;;;;;;6.00;3.83;;;17.40;99.90;;;;;;5037519;28;20186;-77
2022/07/07 08:48:03;;;;;;;7.90;3.72;;;17.80;99.90;;;;;;5037195;28;20652;-77
2022/07/07 08:50:31;;;;;;;4.80;3.47;;;18.30;99.90;;;;;;5054968;28;20274;-77
2022/07/07 08:53:00;;;;;;;4.82;3.40;;;18.90;99.90;;;;;;5036621;28;20242;-77
2022/07/07 08:55:27;;;;;;;4.07;3.45;;;19.30;99.90;;;;;;5037011;28;20194;-77
2022/07/07 08:57:53;;;;;;;4.50;3.30;;;19.40;99.90;;;;;;5036714;28;20174;-77
2022/07/07 09:00:19;;;;;;;3.92;3.50;;;19.40;99.90;;;;;;5036672;28;20235;-77
2022/07/07 09:02:46;;;;;;;5.97;3.58;;;19.20;99.90;;;;;;5037548;28;20217;-77
2022/07/07 09:05:12;;;;;;;3.72;3.42;;;19.00;99.90;;;;;;5036654;28;20201;-77
2022/07/07 09:07:46;;;;;;;5.18;3.63;;;18.50;99.90;;;;;;5037361;28;20175;-77
2022/07/07 09:10:11;;;;;;;6.10;3.92;;;18.40;99.90;;;;;;5036740;28;20174;-77
2022/07/07 09:12:37;;;;;;;6.28;3.90;;;18.10;99.90;;;;;;5054375;28;20249;-77
2022/07/07 09:15:06;;;;;;;4.68;3.08;;;17.80;99.90;;;;;;5036667;28;20675;-77
2022/07/07 09:17:33;;;;;;;7.95;4.20;;;17.70;99.90;;;;;;5037146;28;20182;-77
2022/07/07 09:20:08;;;;;;;7.50;4.13;;;17.60;99.90;;;;;;5054394;28;20194;-77
2022/07/07 09:22:45;;;;;;;5.68;3.80;;;17.40;99.90;;;;;;5036710;28;20198;-77
2022/07/07 09:25:11;;;;;;;4.43;3.97;;;17.30;99.90;;;;;;5036234;28;20684;-77
2022/07/07 09:28:00;;;;;;;8.38;4.20;;;17.30;99.90;;;;;;5054652;28;20182;-77
2022/07/07 09:30:35;;;;;;;5.65;3.88;;;17.20;99.90;;;;;;5036165;28;20185;-77
2022/07/07 09:33:04;;;;;;;4.75;4.07;;;17.10;99.90;;;;;;5037001;28;20186;-77
2022/07/07 09:38:22;;;;;;;4.20;3.80;;;17.20;99.90;;;;;;5054387;28;20178;-77
2022/07/07 09:40:52;;;;;;;4.50;3.72;;;17.30;99.90;;;;;;5035952;28;20217;-77
2022/07/07 09:43:18;;;;;;;4.18;3.75;;;17.50;99.90;;;;;;5035817;28;20206;-77
2022/07/07 09:46:04;;;;;;;6.13;3.90;;;17.70;99.90;;;;;;5036711;28;20193;-77
2022/07/07 09:48:30;;;;;;;7.53;4.25;;;17.70;99.90;;;;;;5036349;28;20174;-77
2022/07/07 09:51:26;;;;;;;6.78;3.95;;;17.90;99.90;;;;;;5036152;28;20174;-77
2022/07/07 09:54:03;;;;;;;5.05;3.70;;;18.10;99.90;;;;;;5036481;28;20194;-78
2022/07/07 09:56:31;;;;;;;9.52;4.22;;;18.30;99.90;;;;;;5035699;28;20173;-77
2022/07/07 09:58:58;;;;;;;4.95;4.40;;;18.30;99.90;;;;;;5036485;28;20186;-77
2022/07/07 10:01:30;;;;;;;6.43;4.55;;;18.30;99.90;;;;;;5035886;28;20204;-77
2022/07/07 10:04:04;;;;;;;9.52;3.70;;;18.20;99.90;;;;;;5053857;28;20228;-77
2022/07/07 10:06:31;;;;;;;6.15;4.18;;;18.20;99.90;;;;;;5053556;28;20163;-77
2022/07/07 10:09:03;;;;;;;5.30;3.78;;;18.20;99.90;;;;;;5036008;28;20253;-77
2022/07/07 10:11:49;;;;;;;5.22;3.90;;;18.20;99.90;;;;;;5035563;28;20181;-77
2022/07/07 10:14:19;;;;;;;5.68;4.63;;;18.10;99.90;;;;;;5036745;28;20294;-77
2022/07/07 10:16:50;;;;;;;4.28;3.92;;;18.00;99.90;;;;;;5036315;28;20181;-77
2022/07/07 10:19:18;;;;;;;4.88;4.18;;;17.90;99.90;;;;;;5036311;28;20257;-77
2022/07/07 10:21:50;;;;;;;5.53;4.45;;;18.00;99.90;;;;;;5035635;28;20675;-77
2022/07/07 10:24:17;;;;;;;6.18;4.30;;;17.80;99.90;;;;;;5035489;28;20275;-77
2022/07/07 10:26:51;;;;;;;6.47;4.35;;;17.90;99.90;;;;;;5035893;28;20247;-77
2022/07/07 10:29:35;;;;;;;5.78;4.15;;;17.80;99.90;;;;;;5036209;28;20166;-77
2022/07/07 10:32:01;;;;;;;4.60;4.25;;;17.80;99.90;;;;;;5036236;28;20170;-77
2022/07/07 10:34:33;;;;;;;6.72;5.60;;;17.70;99.90;;;;;;5035478;28;20237;-77
2022/07/07 10:37:09;;;;;;;6.20;5.53;;;17.70;99.90;;;;;;5035680;28;20186;-77
2022/07/07 10:39:46;;;;;;;7.85;5.15;;;17.80;99.90;;;;;;5035298;28;20202;-77
2022/07/07 10:42:15;;;;;;;6.80;5.10;;;17.80;99.90;;;;;;5036021;28;20608;-77
2022/07/07 10:44:49;;;;;;;10.10;9.10;;;17.70;99.90;;;;;;5053216;28;20221;-77
2022/07/07 10:47:15;;;;;;;10.02;9.15;;;17.80;99.90;;;;;;5035546;28;20616;-77
2022/07/07 10:49:44;;;;;;;11.15;10.18;;;18.00;99.90;;;;;;5036075;28;20236;-77
2022/07/07 10:52:12;;;;;;;9.88;8.88;;;18.20;99.90;;;;;;5035086;28;20174;-77
2022/07/07 10:54:43;;;;;;;9.18;8.25;;;18.30;99.90;;;;;;5053658;28;20247;-77
2022/07/07 10:57:41;;;;;;;6.43;5.82;;;18.30;99.90;;;;;;5035252;28;20243;-77
2022/07/07 11:00:15;;;;;;;8.02;6.28;;;18.20;99.90;;;;;;5034498;28;20249;-77
2022/07/07 11:02:51;;;;;;;6.00;4.82;;;18.30;99.90;;;;;;5035106;28;20206;-77
2022/07/07 11:05:16;;;;;;;7.15;6.43;;;18.60;99.90;;;;;;5053143;28;20216;-77
2022/07/07 11:07:55;;;;;;;5.60;4.72;;;19.00;99.90;;;;;;5035042;28;20174;-77
2022/07/07 11:10:21;;;;;;;5.78;4.20;;;19.10;99.90;;;;;;5053000;28;20170;-77
2022/07/07 11:12:52;;;;;;;4.20;3.90;;;19.70;99.90;;;;;;5035337;28;20179;-77
2022/07/07 11:15:21;;;;;;;4.97;4.22;;;19.90;99.90;;;;;;5054049;28;20190;-77
2022/07/07 11:17:48;;;;;;;5.03;3.72;;;20.10;99.90;;;;;;5038583;28;20275;-77
2022/07/07 11:20:20;;;;;;;5.35;4.50;;;20.30;99.90;;;;;;5039492;28;20270;-77
2022/07/07 11:23:12;;;;;;;3.65;3.03;;;20.60;99.90;;;;;;5039286;28;20274;-77
2022/07/07 11:25:39;;;;;;;3.17;2.80;;;20.90;99.90;;;;;;5039452;28;20178;-77
2022/07/07 11:28:06;;;;;;;2.95;2.55;;;21.00;99.90;;;;;;5038787;28;20190;-77
2022/07/07 11:30:32;;;;;;;4.85;3.25;;;21.00;99.90;;;;;;5038865;28;20178;-77
2022/07/07 11:32:59;;;;;;;2.60;2.40;;;20.70;99.90;;;;;;5038689;28;20213;-77
2022/07/07 11:35:30;;;;;;;2.78;2.40;;;20.70;99.90;;;;;;5056319;28;20205;-77
2022/07/07 11:37:56;;;;;;;2.50;2.30;;;20.70;99.90;;;;;;5056073;28;20257;-77
2022/07/07 11:40:23;;;;;;;3.13;2.10;;;20.80;99.90;;;;;;5039062;28;20575;-77
2022/07/07 11:42:49;;;;;;;2.83;2.22;;;21.20;99.90;;;;;;5038084;28;20710;-77
2022/07/07 11:45:33;;;;;;;2.13;1.80;;;21.80;99.90;;;;;;5038389;28;20190;-77
2022/07/07 11:48:03;;;;;;;2.42;2.22;;;22.40;99.90;;;;;;5056036;28;20167;-77
2022/07/07 11:50:33;;;;;;;2.20;2.10;;;22.60;99.90;;;;;;5056030;28;20167;-77
2022/07/07 11:53:01;;;;;;;2.55;2.30;;;22.40;99.90;;;;;;5038888;28;20175;-77
2022/07/07 11:55:27;;;;;;;3.55;2.20;;;22.00;99.90;;;;;;5037844;28;20198;-77
2022/07/07 11:57:58;;;;;;;2.17;1.95;;;21.60;99.90;;;;;;5055563;28;20183;-77
2022/07/07 12:00:25;;;;;;;3.05;2.25;;;21.20;99.90;;;;;;5055986;28;20162;-77
2022/07/07 12:02:54;;;;;;;2.40;2.20;;;20.90;99.90;;;;;;5037695;28;20210;-77
2022/07/07 12:05:22;;;;;;;4.28;2.50;;;20.70;99.90;;;;;;5038019;28;20285;-77
2022/07/07 12:07:59;;;;;;;6.35;2.40;;;20.50;99.90;;;;;;5037945;28;20181;-77
2022/07/07 12:10:28;;;;;;;2.50;2.30;;;20.40;99.90;;;;;;5037642;28;20207;-77
2022/07/07 12:12:58;;;;;;;3.80;2.33;;;20.20;99.90;;;;;;5037605;28;20710;-77
2022/07/07 12:15:30;;;;;;;2.95;2.70;;;20.10;99.90;;;;;;5037541;28;20221;-77
2022/07/07 12:17:56;;;;;;;3.35;3.08;;;19.90;99.90;;;;;;5037529;28;20178;-77
2022/07/07 12:20:22;;;;;;;4.75;3.10;;;19.70;99.90;;;;;;5037835;28;20206;-77
2022/07/07 12:22:53;;;;;;;3.05;2.85;;;19.70;99.90;;;;;;5038244;28;20594;-76
2022/07/07 12:25:19;;;;;;;5.63;3.33;;;19.50;99.90;;;;;;5037485;28;20208;-77
2022/07/07 12:27:59;;;;;;;5.72;3.65;;;19.30;99.90;;;;;;5036934;28;20336;-77
2022/07/07 12:30:27;;;;;;;3.78;3.42;;;19.10;99.90;;;;;;5055303;28;20625;-77
2022/07/07 12:32:53;;;;;;;3.53;3.20;;;18.90;99.90;;;;;;5037452;28;20720;-77
2022/07/07 12:35:45;;;;;;;3.55;3.35;;;19.00;99.90;;;;;;5037533;28;20229;-77
2022/07/07 12:38:11;;;;;;;3.55;3.00;;;19.30;99.90;;;;;;5034570;28;20190;-77
2022/07/07 12:40:40;;;;;;;3.50;2.72;;;19.70;99.90;;;;;;5037480;28;20228;-77
2022/07/07 12:43:11;;;;;;;3.92;2.63;;;20.00;99.90;;;;;;5036930;28;20585;-77
2022/07/07 12:45:38;;;;;;;3.40;1.88;;;20.10;99.90;;;;;;5055160;28;20174;-77
2022/07/07 12:48:14;;;;;;;2.00;1.83;;;20.10;99.90;;;;;;5037070;28;20265;-77
2022/07/07 12:50:40;;;;;;;2.25;1.95;;;20.10;99.90;;;;;;5055112;28;20245;-77
2022/07/07 12:53:07;;;;;;;1.60;1.50;;;20.20;99.90;;;;;;5054987;28;20273;-77